Boise City, Oklahoma
Current Conditions -  °F | °C
As of 5:55 AM on Monday 24 Nov 2014 (Local Time) from KCAO Reporting Station
Clear Clear  
Wind Chill: 12°   Ceiling: Unl
Heat Index: 23°   Visibility: 10mi
Dew Point: 16°   Wind: 12mph
Humidity: 74%   Direction: 260°W
Pressure: 29.95"   Gusts: NA
Location:  36.73°N, 102.51°W
Report Text: KCAO 241155Z AUTO 26010KT 10SM CLR M05/M09 A2995 RMK AO2 SLP158 60001 70003 T10501089 10006 21050 55001
Loading
Personal Weather Stations






























Interactive Weather Map New forecast layout! Learn more

10-Day Weather Forecast

Advertisements
Track Severe Weather on mobile